sensor_id;sensor_type;location;lat;lon;timestamp;P1;durP1;ratioP1;P2;durP2;ratioP2
6205;SDS011;3136;48.788;9.772;2023-07-29T00:01:41;6.20;;;4.83;;
6205;SDS011;3136;48.788;9.772;2023-07-29T00:04:07;5.23;;;3.93;;
6205;SDS011;3136;48.788;9.772;2023-07-29T00:06:34;6.60;;;3.80;;
6205;SDS011;3136;48.788;9.772;2023-07-29T00:09:00;5.87;;;3.70;;
6205;SDS011;3136;48.788;9.772;2023-07-29T00:11:26;4.30;;;3.77;;
6205;SDS011;3136;48.788;9.772;2023-07-29T00:13:52;5.13;;;3.33;;
6205;SDS011;3136;48.788;9.772;2023-07-29T00:16:18;3.97;;;3.37;;
6205;SDS011;3136;48.788;9.772;2023-07-29T00:18:47;4.27;;;3.87;;
6205;SDS011;3136;48.788;9.772;2023-07-29T00:21:13;4.97;;;3.70;;
6205;SDS011;3136;48.788;9.772;2023-07-29T00:23:38;4.07;;;3.13;;
6205;SDS011;3136;48.788;9.772;2023-07-29T00:26:04;7.80;;;3.40;;
6205;SDS011;3136;48.788;9.772;2023-07-29T00:28:30;4.50;;;3.30;;
6205;SDS011;3136;48.788;9.772;2023-07-29T00:30:55;4.53;;;3.50;;
6205;SDS011;3136;48.788;9.772;2023-07-29T00:33:21;6.53;;;3.70;;
6205;SDS011;3136;48.788;9.772;2023-07-29T00:35:46;5.07;;;4.13;;
6205;SDS011;3136;48.788;9.772;2023-07-29T00:38:12;6.23;;;2.93;;
6205;SDS011;3136;48.788;9.772;2023-07-29T00:40:37;6.87;;;2.93;;
6205;SDS011;3136;48.788;9.772;2023-07-29T00:43:03;5.63;;;3.30;;
6205;SDS011;3136;48.788;9.772;2023-07-29T00:45:29;3.97;;;2.63;;
6205;SDS011;3136;48.788;9.772;2023-07-29T00:47:55;4.40;;;2.70;;
6205;SDS011;3136;48.788;9.772;2023-07-29T00:50:20;4.03;;;2.90;;
6205;SDS011;3136;48.788;9.772;2023-07-29T00:52:46;2.83;;;2.53;;
6205;SDS011;3136;48.788;9.772;2023-07-29T00:55:13;7.63;;;3.20;;
6205;SDS011;3136;48.788;9.772;2023-07-29T00:57:38;4.33;;;2.80;;
6205;SDS011;3136;48.788;9.772;2023-07-29T01:00:05;5.00;;;3.20;;
6205;SDS011;3136;48.788;9.772;2023-07-29T01:02:31;9.13;;;3.17;;
6205;SDS011;3136;48.788;9.772;2023-07-29T01:04:58;4.00;;;3.00;;
6205;SDS011;3136;48.788;9.772;2023-07-29T01:07:28;3.77;;;3.10;;
6205;SDS011;3136;48.788;9.772;2023-07-29T01:13:09;3.67;;;2.97;;
6205;SDS011;3136;48.788;9.772;2023-07-29T01:18:26;8.23;;;3.13;;
6205;SDS011;3136;48.788;9.772;2023-07-29T01:21:02;5.60;;;4.30;;
6205;SDS011;3136;48.788;9.772;2023-07-29T01:23:29;7.93;;;3.60;;
6205;SDS011;3136;48.788;9.772;2023-07-29T01:25:57;8.73;;;3.63;;
6205;SDS011;3136;48.788;9.772;2023-07-29T01:28:22;5.57;;;3.50;;
6205;SDS011;3136;48.788;9.772;2023-07-29T01:30:49;5.03;;;3.83;;
6205;SDS011;3136;48.788;9.772;2023-07-29T01:33:30;6.63;;;3.80;;
6205;SDS011;3136;48.788;9.772;2023-07-29T01:36:25;8.27;;;3.50;;
6205;SDS011;3136;48.788;9.772;2023-07-29T01:38:52;8.00;;;3.70;;
6205;SDS011;3136;48.788;9.772;2023-07-29T01:41:21;6.67;;;3.70;;
6205;SDS011;3136;48.788;9.772;2023-07-29T01:43:47;7.40;;;3.77;;
6205;SDS011;3136;48.788;9.772;2023-07-29T01:46:14;4.20;;;3.47;;
6205;SDS011;3136;48.788;9.772;2023-07-29T01:48:40;4.60;;;3.03;;
6205;SDS011;3136;48.788;9.772;2023-07-29T01:51:06;6.57;;;3.30;;
6205;SDS011;3136;48.788;9.772;2023-07-29T01:53:32;6.23;;;3.10;;
6205;SDS011;3136;48.788;9.772;2023-07-29T01:55:58;3.43;;;3.10;;
6205;SDS011;3136;48.788;9.772;2023-07-29T01:58:24;4.33;;;3.03;;
6205;SDS011;3136;48.788;9.772;2023-07-29T02:00:50;3.63;;;3.00;;
6205;SDS011;3136;48.788;9.772;2023-07-29T02:03:15;5.23;;;3.30;;
6205;SDS011;3136;48.788;9.772;2023-07-29T02:05:41;6.93;;;3.40;;
6205;SDS011;3136;48.788;9.772;2023-07-29T02:08:08;6.77;;;3.27;;
6205;SDS011;3136;48.788;9.772;2023-07-29T02:10:34;9.23;;;3.60;;
6205;SDS011;3136;48.788;9.772;2023-07-29T02:13:00;6.53;;;3.13;;
6205;SDS011;3136;48.788;9.772;2023-07-29T02:15:25;3.57;;;3.10;;
6205;SDS011;3136;48.788;9.772;2023-07-29T02:17:51;7.60;;;3.13;;
6205;SDS011;3136;48.788;9.772;2023-07-29T02:20:18;6.60;;;3.03;;
6205;SDS011;3136;48.788;9.772;2023-07-29T02:22:43;7.30;;;3.53;;
6205;SDS011;3136;48.788;9.772;2023-07-29T02:25:09;4.90;;;3.40;;
6205;SDS011;3136;48.788;9.772;2023-07-29T02:27:35;4.53;;;3.40;;
6205;SDS011;3136;48.788;9.772;2023-07-29T02:30:00;4.70;;;3.20;;
6205;SDS011;3136;48.788;9.772;2023-07-29T02:32:27;6.80;;;3.27;;
6205;SDS011;3136;48.788;9.772;2023-07-29T02:34:52;5.90;;;2.90;;
6205;SDS011;3136;48.788;9.772;2023-07-29T02:37:18;6.27;;;3.47;;
6205;SDS011;3136;48.788;9.772;2023-07-29T02:39:45;8.07;;;3.30;;
6205;SDS011;3136;48.788;9.772;2023-07-29T02:42:10;4.07;;;3.33;;
6205;SDS011;3136;48.788;9.772;2023-07-29T02:44:36;7.20;;;3.30;;
6205;SDS011;3136;48.788;9.772;2023-07-29T02:47:01;4.53;;;3.17;;
6205;SDS011;3136;48.788;9.772;2023-07-29T02:49:27;6.33;;;3.30;;
6205;SDS011;3136;48.788;9.772;2023-07-29T02:51:52;5.83;;;3.33;;
6205;SDS011;3136;48.788;9.772;2023-07-29T02:54:18;5.83;;;3.23;;
6205;SDS011;3136;48.788;9.772;2023-07-29T02:56:43;5.87;;;3.10;;
6205;SDS011;3136;48.788;9.772;2023-07-29T02:59:09;5.43;;;3.20;;
6205;SDS011;3136;48.788;9.772;2023-07-29T03:01:35;11.73;;;3.80;;
6205;SDS011;3136;48.788;9.772;2023-07-29T03:04:00;3.93;;;3.07;;
6205;SDS011;3136;48.788;9.772;2023-07-29T03:06:26;3.47;;;2.90;;
6205;SDS011;3136;48.788;9.772;2023-07-29T03:08:51;3.37;;;3.07;;
6205;SDS011;3136;48.788;9.772;2023-07-29T03:11:17;4.40;;;3.07;;
6205;SDS011;3136;48.788;9.772;2023-07-29T03:13:43;6.90;;;3.20;;
6205;SDS011;3136;48.788;9.772;2023-07-29T03:16:12;5.40;;;3.20;;
6205;SDS011;3136;48.788;9.772;2023-07-29T03:18:39;4.77;;;3.47;;
6205;SDS011;3136;48.788;9.772;2023-07-29T03:21:06;4.40;;;3.17;;
6205;SDS011;3136;48.788;9.772;2023-07-29T03:23:32;4.47;;;3.20;;
6205;SDS011;3136;48.788;9.772;2023-07-29T03:25:58;6.00;;;3.37;;
6205;SDS011;3136;48.788;9.772;2023-07-29T03:28:25;3.63;;;3.13;;
6205;SDS011;3136;48.788;9.772;2023-07-29T03:30:52;5.00;;;3.40;;
6205;SDS011;3136;48.788;9.772;2023-07-29T03:33:18;3.80;;;3.10;;
6205;SDS011;3136;48.788;9.772;2023-07-29T03:35:44;4.97;;;3.50;;
6205;SDS011;3136;48.788;9.772;2023-07-29T03:38:10;3.53;;;3.20;;
6205;SDS011;3136;48.788;9.772;2023-07-29T03:40:37;4.40;;;3.10;;
6205;SDS011;3136;48.788;9.772;2023-07-29T03:43:03;7.33;;;3.03;;
6205;SDS011;3136;48.788;9.772;2023-07-29T03:45:29;4.77;;;3.43;;
6205;SDS011;3136;48.788;9.772;2023-07-29T03:47:54;5.73;;;3.63;;
6205;SDS011;3136;48.788;9.772;2023-07-29T03:50:20;5.80;;;3.50;;
6205;SDS011;3136;48.788;9.772;2023-07-29T03:52:46;4.20;;;3.10;;
6205;SDS011;3136;48.788;9.772;2023-07-29T03:55:11;3.63;;;2.90;;
6205;SDS011;3136;48.788;9.772;2023-07-29T03:57:37;6.50;;;2.90;;
6205;SDS011;3136;48.788;9.772;2023-07-29T04:00:02;5.57;;;2.97;;
6205;SDS011;3136;48.788;9.772;2023-07-29T04:02:28;4.07;;;2.60;;
6205;SDS011;3136;48.788;9.772;2023-07-29T04:04:54;6.13;;;2.80;;
6205;SDS011;3136;48.788;9.772;2023-07-29T04:07:19;3.57;;;2.60;;
6205;SDS011;3136;48.788;9.772;2023-07-29T04:09:45;5.30;;;2.93;;
6205;SDS011;3136;48.788;9.772;2023-07-29T04:12:11;5.27;;;2.60;;
6205;SDS011;3136;48.788;9.772;2023-07-29T04:14:37;6.60;;;2.87;;
6205;SDS011;3136;48.788;9.772;2023-07-29T04:17:02;3.23;;;2.83;;
6205;SDS011;3136;48.788;9.772;2023-07-29T04:19:28;4.90;;;2.80;;
6205;SDS011;3136;48.788;9.772;2023-07-29T04:21:53;2.40;;;2.20;;
6205;SDS011;3136;48.788;9.772;2023-07-29T04:24:19;2.90;;;2.60;;
6205;SDS011;3136;48.788;9.772;2023-07-29T04:26:45;2.90;;;2.50;;
6205;SDS011;3136;48.788;9.772;2023-07-29T04:29:11;6.70;;;2.47;;
6205;SDS011;3136;48.788;9.772;2023-07-29T04:31:37;2.77;;;2.47;;
6205;SDS011;3136;48.788;9.772;2023-07-29T04:34:04;4.17;;;3.50;;
6205;SDS011;3136;48.788;9.772;2023-07-29T04:36:30;3.37;;;2.80;;
6205;SDS011;3136;48.788;9.772;2023-07-29T04:38:55;4.67;;;2.53;;
6205;SDS011;3136;48.788;9.772;2023-07-29T04:41:21;3.70;;;2.50;;
6205;SDS011;3136;48.788;9.772;2023-07-29T04:43:46;4.03;;;2.63;;
6205;SDS011;3136;48.788;9.772;2023-07-29T04:46:14;2.60;;;2.20;;
6205;SDS011;3136;48.788;9.772;2023-07-29T04:48:40;2.30;;;2.10;;
6205;SDS011;3136;48.788;9.772;2023-07-29T04:51:05;3.40;;;2.33;;
6205;SDS011;3136;48.788;9.772;2023-07-29T04:53:31;7.37;;;2.50;;
6205;SDS011;3136;48.788;9.772;2023-07-29T04:55:56;5.83;;;2.40;;
6205;SDS011;3136;48.788;9.772;2023-07-29T04:58:22;3.90;;;2.57;;
6205;SDS011;3136;48.788;9.772;2023-07-29T05:00:47;3.33;;;2.50;;
6205;SDS011;3136;48.788;9.772;2023-07-29T05:03:13;5.47;;;3.03;;
6205;SDS011;3136;48.788;9.772;2023-07-29T05:05:38;6.83;;;2.80;;
6205;SDS011;3136;48.788;9.772;2023-07-29T05:08:04;4.43;;;2.10;;
6205;SDS011;3136;48.788;9.772;2023-07-29T05:10:30;3.80;;;2.20;;
6205;SDS011;3136;48.788;9.772;2023-07-29T05:12:55;5.87;;;2.40;;
6205;SDS011;3136;48.788;9.772;2023-07-29T05:15:21;4.10;;;2.33;;
6205;SDS011;3136;48.788;9.772;2023-07-29T05:17:46;3.00;;;2.70;;
6205;SDS011;3136;48.788;9.772;2023-07-29T05:20:12;10.30;;;2.87;;
6205;SDS011;3136;48.788;9.772;2023-07-29T05:22:37;5.47;;;3.07;;
6205;SDS011;3136;48.788;9.772;2023-07-29T05:25:03;3.73;;;3.03;;
6205;SDS011;3136;48.788;9.772;2023-07-29T05:27:29;6.23;;;3.00;;
6205;SDS011;3136;48.788;9.772;2023-07-29T05:29:54;5.07;;;2.90;;
6205;SDS011;3136;48.788;9.772;2023-07-29T05:32:20;6.37;;;2.83;;
6205;SDS011;3136;48.788;9.772;2023-07-29T05:34:46;5.03;;;2.60;;
6205;SDS011;3136;48.788;9.772;2023-07-29T05:37:12;4.10;;;2.40;;
6205;SDS011;3136;48.788;9.772;2023-07-29T05:39:37;3.70;;;2.40;;
6205;SDS011;3136;48.788;9.772;2023-07-29T05:42:03;4.07;;;2.53;;
6205;SDS011;3136;48.788;9.772;2023-07-29T05:44:29;6.27;;;2.77;;
6205;SDS011;3136;48.788;9.772;2023-07-29T05:46:55;3.60;;;2.40;;
6205;SDS011;3136;48.788;9.772;2023-07-29T05:49:21;3.03;;;2.70;;
6205;SDS011;3136;48.788;9.772;2023-07-29T05:51:46;3.03;;;2.67;;
6205;SDS011;3136;48.788;9.772;2023-07-29T05:54:12;6.40;;;2.70;;
6205;SDS011;3136;48.788;9.772;2023-07-29T05:56:37;3.37;;;2.50;;
6205;SDS011;3136;48.788;9.772;2023-07-29T05:59:03;5.07;;;2.97;;
6205;SDS011;3136;48.788;9.772;2023-07-29T06:01:28;6.57;;;2.93;;
6205;SDS011;3136;48.788;9.772;2023-07-29T06:03:54;2.90;;;2.50;;
6205;SDS011;3136;48.788;9.772;2023-07-29T06:06:20;4.07;;;2.80;;
6205;SDS011;3136;48.788;9.772;2023-07-29T06:08:45;3.17;;;2.33;;
6205;SDS011;3136;48.788;9.772;2023-07-29T06:11:11;3.73;;;2.27;;
6205;SDS011;3136;48.788;9.772;2023-07-29T06:13:36;3.27;;;2.27;;
6205;SDS011;3136;48.788;9.772;2023-07-29T06:16:02;2.83;;;2.43;;
6205;SDS011;3136;48.788;9.772;2023-07-29T06:18:28;5.87;;;4.10;;
6205;SDS011;3136;48.788;9.772;2023-07-29T06:20:54;4.43;;;3.90;;
6205;SDS011;3136;48.788;9.772;2023-07-29T06:23:19;3.50;;;3.00;;
6205;SDS011;3136;48.788;9.772;2023-07-29T06:25:45;3.40;;;2.77;;
6205;SDS011;3136;48.788;9.772;2023-07-29T06:28:10;3.40;;;2.60;;
6205;SDS011;3136;48.788;9.772;2023-07-29T06:30:36;4.97;;;2.90;;
6205;SDS011;3136;48.788;9.772;2023-07-29T06:33:01;5.13;;;2.73;;
6205;SDS011;3136;48.788;9.772;2023-07-29T06:35:28;3.37;;;2.50;;
6205;SDS011;3136;48.788;9.772;2023-07-29T06:37:54;4.43;;;2.87;;
6205;SDS011;3136;48.788;9.772;2023-07-29T06:40:19;3.57;;;2.80;;
6205;SDS011;3136;48.788;9.772;2023-07-29T06:42:45;5.97;;;2.70;;
6205;SDS011;3136;48.788;9.772;2023-07-29T06:45:11;7.17;;;2.50;;
6205;SDS011;3136;48.788;9.772;2023-07-29T06:47:37;5.20;;;2.87;;
6205;SDS011;3136;48.788;9.772;2023-07-29T06:50:02;3.93;;;2.50;;
6205;SDS011;3136;48.788;9.772;2023-07-29T06:52:28;5.73;;;2.80;;
6205;SDS011;3136;48.788;9.772;2023-07-29T06:54:54;4.90;;;2.53;;
6205;SDS011;3136;48.788;9.772;2023-07-29T06:57:19;4.20;;;2.63;;
6205;SDS011;3136;48.788;9.772;2023-07-29T06:59:45;4.70;;;2.53;;
6205;SDS011;3136;48.788;9.772;2023-07-29T07:02:10;2.80;;;2.47;;
6205;SDS011;3136;48.788;9.772;2023-07-29T07:04:36;4.10;;;2.77;;
6205;SDS011;3136;48.788;9.772;2023-07-29T07:07:04;5.43;;;3.03;;
6205;SDS011;3136;48.788;9.772;2023-07-29T07:09:30;2.93;;;2.40;;
6205;SDS011;3136;48.788;9.772;2023-07-29T07:11:55;3.70;;;2.73;;
6205;SDS011;3136;48.788;9.772;2023-07-29T07:14:21;4.63;;;2.77;;
6205;SDS011;3136;48.788;9.772;2023-07-29T07:16:47;3.23;;;2.57;;
6205;SDS011;3136;48.788;9.772;2023-07-29T07:19:12;3.90;;;2.70;;
6205;SDS011;3136;48.788;9.772;2023-07-29T07:21:38;4.10;;;2.53;;
6205;SDS011;3136;48.788;9.772;2023-07-29T07:24:03;6.33;;;2.30;;
6205;SDS011;3136;48.788;9.772;2023-07-29T07:26:29;2.97;;;2.63;;
6205;SDS011;3136;48.788;9.772;2023-07-29T07:28:55;2.63;;;2.40;;
6205;SDS011;3136;48.788;9.772;2023-07-29T07:31:20;5.43;;;2.80;;
6205;SDS011;3136;48.788;9.772;2023-07-29T07:33:46;4.00;;;3.07;;
6205;SDS011;3136;48.788;9.772;2023-07-29T07:36:12;7.37;;;3.17;;
6205;SDS011;3136;48.788;9.772;2023-07-29T07:38:37;11.17;;;3.03;;
6205;SDS011;3136;48.788;9.772;2023-07-29T07:41:03;4.43;;;3.30;;
6205;SDS011;3136;48.788;9.772;2023-07-29T07:43:28;8.53;;;3.37;;
6205;SDS011;3136;48.788;9.772;2023-07-29T07:45:58;5.43;;;3.40;;
6205;SDS011;3136;48.788;9.772;2023-07-29T07:48:24;6.57;;;3.10;;
6205;SDS011;3136;48.788;9.772;2023-07-29T07:50:50;6.93;;;2.80;;
6205;SDS011;3136;48.788;9.772;2023-07-29T07:53:16;6.47;;;2.70;;
6205;SDS011;3136;48.788;9.772;2023-07-29T07:55:41;9.03;;;2.90;;
6205;SDS011;3136;48.788;9.772;2023-07-29T07:58:07;6.80;;;2.90;;
6205;SDS011;3136;48.788;9.772;2023-07-29T08:00:32;3.27;;;1.93;;
6205;SDS011;3136;48.788;9.772;2023-07-29T08:02:58;2.17;;;1.90;;
6205;SDS011;3136;48.788;9.772;2023-07-29T08:05:23;3.10;;;1.80;;
6205;SDS011;3136;48.788;9.772;2023-07-29T08:07:49;3.80;;;1.73;;
6205;SDS011;3136;48.788;9.772;2023-07-29T08:10:14;2.17;;;1.47;;
6205;SDS011;3136;48.788;9.772;2023-07-29T08:12:40;2.77;;;1.57;;
6205;SDS011;3136;48.788;9.772;2023-07-29T08:15:06;2.93;;;1.50;;
6205;SDS011;3136;48.788;9.772;2023-07-29T08:17:32;2.23;;;1.50;;
6205;SDS011;3136;48.788;9.772;2023-07-29T08:19:57;1.87;;;1.50;;
6205;SDS011;3136;48.788;9.772;2023-07-29T08:22:23;4.47;;;1.43;;
6205;SDS011;3136;48.788;9.772;2023-07-29T08:24:48;1.60;;;1.50;;
6205;SDS011;3136;48.788;9.772;2023-07-29T08:27:14;3.07;;;1.50;;
6205;SDS011;3136;48.788;9.772;2023-07-29T08:29:39;4.77;;;1.70;;
6205;SDS011;3136;48.788;9.772;2023-07-29T08:32:05;1.73;;;1.43;;
6205;SDS011;3136;48.788;9.772;2023-07-29T08:34:31;4.20;;;1.60;;
6205;SDS011;3136;48.788;9.772;2023-07-29T08:36:56;4.03;;;1.30;;
6205;SDS011;3136;48.788;9.772;2023-07-29T08:39:22;4.23;;;1.60;;
6205;SDS011;3136;48.788;9.772;2023-07-29T08:46:51;2.93;;;1.50;;
6205;SDS011;3136;48.788;9.772;2023-07-29T08:49:19;8.90;;;2.10;;
6205;SDS011;3136;48.788;9.772;2023-07-29T08:51:47;2.93;;;1.50;;
6205;SDS011;3136;48.788;9.772;2023-07-29T08:54:14;3.10;;;1.50;;
6205;SDS011;3136;48.788;9.772;2023-07-29T08:56:40;3.10;;;1.70;;
6205;SDS011;3136;48.788;9.772;2023-07-29T08:59:07;3.00;;;1.60;;
6205;SDS011;3136;48.788;9.772;2023-07-29T09:01:38;3.23;;;1.77;;
6205;SDS011;3136;48.788;9.772;2023-07-29T09:04:04;2.53;;;1.90;;
6205;SDS011;3136;48.788;9.772;2023-07-29T09:06:30;4.53;;;1.63;;
6205;SDS011;3136;48.788;9.772;2023-07-29T09:08:56;3.50;;;1.97;;
6205;SDS011;3136;48.788;9.772;2023-07-29T09:11:23;4.00;;;1.70;;
6205;SDS011;3136;48.788;9.772;2023-07-29T09:13:49;4.23;;;1.80;;
6205;SDS011;3136;48.788;9.772;2023-07-29T09:16:15;3.17;;;1.90;;
6205;SDS011;3136;48.788;9.772;2023-07-29T09:18:41;4.27;;;2.20;;
6205;SDS011;3136;48.788;9.772;2023-07-29T09:21:06;4.27;;;1.93;;
6205;SDS011;3136;48.788;9.772;2023-07-29T09:23:42;4.20;;;1.80;;
6205;SDS011;3136;48.788;9.772;2023-07-29T09:26:09;3.53;;;1.60;;
6205;SDS011;3136;48.788;9.772;2023-07-29T09:28:35;2.97;;;1.70;;
6205;SDS011;3136;48.788;9.772;2023-07-29T09:31:02;2.63;;;1.93;;
6205;SDS011;3136;48.788;9.772;2023-07-29T09:33:28;2.10;;;1.80;;
6205;SDS011;3136;48.788;9.772;2023-07-29T09:35:56;2.17;;;1.90;;
6205;SDS011;3136;48.788;9.772;2023-07-29T09:38:28;2.40;;;1.63;;
6205;SDS011;3136;48.788;9.772;2023-07-29T09:40:57;3.23;;;1.77;;
6205;SDS011;3136;48.788;9.772;2023-07-29T09:43:28;4.00;;;2.00;;
6205;SDS011;3136;48.788;9.772;2023-07-29T09:45:54;1.80;;;1.50;;
6205;SDS011;3136;48.788;9.772;2023-07-29T09:48:23;2.50;;;1.80;;
6205;SDS011;3136;48.788;9.772;2023-07-29T09:50:49;1.93;;;1.70;;
6205;SDS011;3136;48.788;9.772;2023-07-29T09:53:14;2.33;;;1.60;;
6205;SDS011;3136;48.788;9.772;2023-07-29T09:55:41;3.97;;;1.60;;
6205;SDS011;3136;48.788;9.772;2023-07-29T09:58:12;1.60;;;1.50;;
6205;SDS011;3136;48.788;9.772;2023-07-29T10:00:37;3.03;;;1.53;;
6205;SDS011;3136;48.788;9.772;2023-07-29T10:03:05;2.03;;;1.70;;
6205;SDS011;3136;48.788;9.772;2023-07-29T10:05:31;1.97;;;1.60;;
6205;SDS011;3136;48.788;9.772;2023-07-29T10:07:59;2.13;;;1.63;;
6205;SDS011;3136;48.788;9.772;2023-07-29T10:10:26;3.60;;;1.80;;
6205;SDS011;3136;48.788;9.772;2023-07-29T10:12:52;2.40;;;1.67;;
6205;SDS011;3136;48.788;9.772;2023-07-29T10:15:19;1.60;;;1.50;;
6205;SDS011;3136;48.788;9.772;2023-07-29T10:17:46;1.80;;;1.70;;
6205;SDS011;3136;48.788;9.772;2023-07-29T10:20:11;3.53;;;1.50;;
6205;SDS011;3136;48.788;9.772;2023-07-29T10:22:38;2.40;;;1.60;;
6205;SDS011;3136;48.788;9.772;2023-07-29T10:25:07;2.07;;;1.73;;
6205;SDS011;3136;48.788;9.772;2023-07-29T10:27:37;2.17;;;1.70;;
6205;SDS011;3136;48.788;9.772;2023-07-29T10:30:10;2.90;;;1.50;;
6205;SDS011;3136;48.788;9.772;2023-07-29T10:32:41;1.97;;;1.60;;
6205;SDS011;3136;48.788;9.772;2023-07-29T10:35:13;3.57;;;1.63;;
6205;SDS011;3136;48.788;9.772;2023-07-29T10:37:40;3.83;;;1.80;;
6205;SDS011;3136;48.788;9.772;2023-07-29T10:40:07;1.93;;;1.53;;
6205;SDS011;3136;48.788;9.772;2023-07-29T10:42:34;2.73;;;1.60;;
6205;SDS011;3136;48.788;9.772;2023-07-29T10:45:02;2.83;;;1.60;;
6205;SDS011;3136;48.788;9.772;2023-07-29T10:47:42;2.17;;;1.63;;
6205;SDS011;3136;48.788;9.772;2023-07-29T10:50:16;2.03;;;1.70;;
6205;SDS011;3136;48.788;9.772;2023-07-29T10:52:49;3.13;;;1.87;;
6205;SDS011;3136;48.788;9.772;2023-07-29T10:55:26;1.77;;;1.57;;
6205;SDS011;3136;48.788;9.772;2023-07-29T10:58:08;5.67;;;1.80;;
6205;SDS011;3136;48.788;9.772;2023-07-29T11:00:38;2.20;;;2.00;;
6205;SDS011;3136;48.788;9.772;2023-07-29T11:03:07;3.57;;;1.90;;
6205;SDS011;3136;48.788;9.772;2023-07-29T11:10:59;2.80;;;0.97;;
6205;SDS011;3136;48.788;9.772;2023-07-29T11:13:29;2.07;;;0.87;;
6205;SDS011;3136;48.788;9.772;2023-07-29T11:15:56;0.90;;;0.70;;
6205;SDS011;3136;48.788;9.772;2023-07-29T11:18:25;0.90;;;0.90;;
6205;SDS011;3136;48.788;9.772;2023-07-29T11:20:59;2.77;;;1.10;;
6205;SDS011;3136;48.788;9.772;2023-07-29T11:23:33;1.50;;;0.90;;
6205;SDS011;3136;48.788;9.772;2023-07-29T11:26:00;4.47;;;1.00;;
6205;SDS011;3136;48.788;9.772;2023-07-29T11:28:26;1.00;;;0.90;;
6205;SDS011;3136;48.788;9.772;2023-07-29T11:30:53;3.00;;;0.90;;
6205;SDS011;3136;48.788;9.772;2023-07-29T11:33:24;1.57;;;0.80;;
6205;SDS011;3136;48.788;9.772;2023-07-29T11:35:50;1.20;;;1.10;;
6205;SDS011;3136;48.788;9.772;2023-07-29T11:38:17;2.47;;;0.90;;
6205;SDS011;3136;48.788;9.772;2023-07-29T11:40:43;2.47;;;1.00;;
6205;SDS011;3136;48.788;9.772;2023-07-29T11:43:23;0.90;;;0.90;;
6205;SDS011;3136;48.788;9.772;2023-07-29T11:45:48;1.00;;;0.90;;
6205;SDS011;3136;48.788;9.772;2023-07-29T11:48:14;1.63;;;0.90;;
6205;SDS011;3136;48.788;9.772;2023-07-29T11:50:40;0.90;;;0.90;;
6205;SDS011;3136;48.788;9.772;2023-07-29T11:53:05;2.00;;;1.00;;
6205;SDS011;3136;48.788;9.772;2023-07-29T11:55:31;1.47;;;1.07;;
6205;SDS011;3136;48.788;9.772;2023-07-29T11:57:58;1.20;;;1.10;;
6205;SDS011;3136;48.788;9.772;2023-07-29T12:00:26;1.50;;;1.00;;
6205;SDS011;3136;48.788;9.772;2023-07-29T12:02:52;1.13;;;1.03;;
6205;SDS011;3136;48.788;9.772;2023-07-29T12:05:18;1.20;;;1.10;;
6205;SDS011;3136;48.788;9.772;2023-07-29T12:07:46;1.40;;;1.30;;
6205;SDS011;3136;48.788;9.772;2023-07-29T12:10:12;1.20;;;1.10;;
6205;SDS011;3136;48.788;9.772;2023-07-29T12:12:48;1.50;;;1.17;;
6205;SDS011;3136;48.788;9.772;2023-07-29T12:15:28;1.60;;;1.50;;
6205;SDS011;3136;48.788;9.772;2023-07-29T12:17:57;2.47;;;1.20;;
6205;SDS011;3136;48.788;9.772;2023-07-29T12:20:24;1.20;;;1.10;;
6205;SDS011;3136;48.788;9.772;2023-07-29T12:22:53;2.03;;;1.20;;
6205;SDS011;3136;48.788;9.772;2023-07-29T12:25:20;1.10;;;1.00;;
6205;SDS011;3136;48.788;9.772;2023-07-29T12:27:46;1.50;;;1.40;;
6205;SDS011;3136;48.788;9.772;2023-07-29T12:30:12;2.87;;;1.30;;
6205;SDS011;3136;48.788;9.772;2023-07-29T12:32:44;2.37;;;1.37;;
6205;SDS011;3136;48.788;9.772;2023-07-29T12:35:10;2.27;;;1.33;;
6205;SDS011;3136;48.788;9.772;2023-07-29T12:37:35;1.80;;;1.30;;
6205;SDS011;3136;48.788;9.772;2023-07-29T12:40:03;2.07;;;1.27;;
6205;SDS011;3136;48.788;9.772;2023-07-29T12:42:29;1.53;;;1.30;;
6205;SDS011;3136;48.788;9.772;2023-07-29T12:44:55;1.83;;;1.10;;
6205;SDS011;3136;48.788;9.772;2023-07-29T12:47:20;2.60;;;1.30;;
6205;SDS011;3136;48.788;9.772;2023-07-29T12:49:46;2.40;;;1.30;;
6205;SDS011;3136;48.788;9.772;2023-07-29T12:52:11;1.43;;;1.20;;
6205;SDS011;3136;48.788;9.772;2023-07-29T12:54:37;2.47;;;1.40;;
6205;SDS011;3136;48.788;9.772;2023-07-29T12:57:02;2.00;;;1.50;;
6205;SDS011;3136;48.788;9.772;2023-07-29T12:59:29;1.93;;;1.33;;
6205;SDS011;3136;48.788;9.772;2023-07-29T13:01:55;2.27;;;1.40;;
6205;SDS011;3136;48.788;9.772;2023-07-29T13:04:20;1.97;;;1.30;;
6205;SDS011;3136;48.788;9.772;2023-07-29T13:06:46;2.87;;;1.20;;
6205;SDS011;3136;48.788;9.772;2023-07-29T13:09:11;2.20;;;1.40;;
6205;SDS011;3136;48.788;9.772;2023-07-29T13:11:37;1.53;;;1.43;;
6205;SDS011;3136;48.788;9.772;2023-07-29T13:14:02;2.37;;;1.40;;
6205;SDS011;3136;48.788;9.772;2023-07-29T13:16:28;1.30;;;1.20;;
6205;SDS011;3136;48.788;9.772;2023-07-29T13:18:54;1.30;;;1.20;;
6205;SDS011;3136;48.788;9.772;2023-07-29T13:21:20;1.80;;;1.40;;
6205;SDS011;3136;48.788;9.772;2023-07-29T13:23:46;1.67;;;1.40;;
6205;SDS011;3136;48.788;9.772;2023-07-29T13:26:11;1.97;;;1.30;;
6205;SDS011;3136;48.788;9.772;2023-07-29T13:28:37;2.40;;;1.30;;
6205;SDS011;3136;48.788;9.772;2023-07-29T13:31:03;1.30;;;1.17;;
6205;SDS011;3136;48.788;9.772;2023-07-29T13:33:28;1.50;;;1.40;;
6205;SDS011;3136;48.788;9.772;2023-07-29T13:35:58;1.40;;;1.30;;
6205;SDS011;3136;48.788;9.772;2023-07-29T13:38:24;1.47;;;1.37;;
6205;SDS011;3136;48.788;9.772;2023-07-29T13:40:50;1.70;;;1.50;;
6205;SDS011;3136;48.788;9.772;2023-07-29T13:43:16;1.63;;;1.50;;
6205;SDS011;3136;48.788;9.772;2023-07-29T13:45:41;2.73;;;1.40;;
6205;SDS011;3136;48.788;9.772;2023-07-29T13:48:07;1.53;;;1.30;;
6205;SDS011;3136;48.788;9.772;2023-07-29T13:50:32;1.73;;;1.47;;
6205;SDS011;3136;48.788;9.772;2023-07-29T13:52:58;2.50;;;1.40;;
6205;SDS011;3136;48.788;9.772;2023-07-29T13:55:24;1.77;;;1.30;;
6205;SDS011;3136;48.788;9.772;2023-07-29T13:57:49;3.60;;;1.70;;
6205;SDS011;3136;48.788;9.772;2023-07-29T14:00:15;3.00;;;1.57;;
6205;SDS011;3136;48.788;9.772;2023-07-29T14:02:41;4.80;;;1.60;;
6205;SDS011;3136;48.788;9.772;2023-07-29T14:05:07;10.60;;;2.10;;
6205;SDS011;3136;48.788;9.772;2023-07-29T14:07:33;3.30;;;1.40;;
6205;SDS011;3136;48.788;9.772;2023-07-29T14:09:58;1.73;;;1.60;;
6205;SDS011;3136;48.788;9.772;2023-07-29T14:12:24;1.60;;;1.50;;
6205;SDS011;3136;48.788;9.772;2023-07-29T14:14:49;3.20;;;1.60;;
6205;SDS011;3136;48.788;9.772;2023-07-29T14:17:15;1.70;;;1.60;;
6205;SDS011;3136;48.788;9.772;2023-07-29T14:19:41;1.70;;;1.60;;
6205;SDS011;3136;48.788;9.772;2023-07-29T14:22:06;1.67;;;1.40;;
6205;SDS011;3136;48.788;9.772;2023-07-29T14:24:32;2.30;;;1.60;;
6205;SDS011;3136;48.788;9.772;2023-07-29T14:26:57;2.73;;;1.70;;
6205;SDS011;3136;48.788;9.772;2023-07-29T14:29:23;1.70;;;1.60;;
6205;SDS011;3136;48.788;9.772;2023-07-29T14:31:48;3.77;;;1.77;;
6205;SDS011;3136;48.788;9.772;2023-07-29T14:34:14;2.03;;;1.53;;
6205;SDS011;3136;48.788;9.772;2023-07-29T14:36:39;3.27;;;1.53;;
6205;SDS011;3136;48.788;9.772;2023-07-29T14:39:05;1.60;;;1.50;;
6205;SDS011;3136;48.788;9.772;2023-07-29T14:41:30;2.80;;;1.60;;
6205;SDS011;3136;48.788;9.772;2023-07-29T14:43:56;1.83;;;1.67;;
6205;SDS011;3136;48.788;9.772;2023-07-29T14:46:22;1.60;;;1.50;;
6205;SDS011;3136;48.788;9.772;2023-07-29T14:48:48;2.13;;;1.57;;
6205;SDS011;3136;48.788;9.772;2023-07-29T14:51:13;4.07;;;1.60;;
6205;SDS011;3136;48.788;9.772;2023-07-29T14:53:39;2.97;;;1.87;;
6205;SDS011;3136;48.788;9.772;2023-07-29T14:56:05;1.93;;;1.47;;
6205;SDS011;3136;48.788;9.772;2023-07-29T14:58:31;1.67;;;1.57;;
6205;SDS011;3136;48.788;9.772;2023-07-29T15:00:56;2.10;;;1.70;;
6205;SDS011;3136;48.788;9.772;2023-07-29T15:03:23;6.07;;;1.90;;
6205;SDS011;3136;48.788;9.772;2023-07-29T15:05:49;1.60;;;1.50;;
6205;SDS011;3136;48.788;9.772;2023-07-29T15:08:15;1.70;;;1.60;;
6205;SDS011;3136;48.788;9.772;2023-07-29T15:10:40;1.80;;;1.60;;
6205;SDS011;3136;48.788;9.772;2023-07-29T15:13:09;2.30;;;1.87;;
6205;SDS011;3136;48.788;9.772;2023-07-29T15:15:35;2.20;;;1.90;;
6205;SDS011;3136;48.788;9.772;2023-07-29T15:18:00;2.10;;;1.87;;
6205;SDS011;3136;48.788;9.772;2023-07-29T15:20:26;1.70;;;1.60;;
6205;SDS011;3136;48.788;9.772;2023-07-29T15:22:51;1.93;;;1.77;;
6205;SDS011;3136;48.788;9.772;2023-07-29T15:25:17;1.90;;;1.70;;
6205;SDS011;3136;48.788;9.772;2023-07-29T15:27:42;2.67;;;1.80;;